createdAt,value
2023-03-16T00:02:27.997Z,8.27
2023-03-16T00:05:32.168Z,9.38
2023-03-16T00:08:36.172Z,7.57
2023-03-16T00:11:39.711Z,8.63
2023-03-16T00:14:47.809Z,8.40
2023-03-16T00:17:51.219Z,8.35
2023-03-16T00:20:59.819Z,7.60
2023-03-16T00:24:04.237Z,4.70
2023-03-16T00:27:07.705Z,9.32
2023-03-16T00:30:11.886Z,9.25
2023-03-16T00:33:15.609Z,5.82
2023-03-16T00:36:19.115Z,7.65
2023-03-16T00:39:22.972Z,7.73
2023-03-16T00:42:31.639Z,6.18
2023-03-16T00:45:36.495Z,7.47
2023-03-16T00:48:42.871Z,7.65
2023-03-16T00:51:46.757Z,11.48
2023-03-16T00:54:53.479Z,8.97
2023-03-16T00:57:57.100Z,6.68
2023-03-16T01:01:09.569Z,6.80
2023-03-16T01:04:14.076Z,7.25
2023-03-16T01:07:17.840Z,10.53
2023-03-16T01:10:21.441Z,5.53
2023-03-16T01:13:25.040Z,6.88
2023-03-16T01:16:28.677Z,10.30
2023-03-16T01:19:35.782Z,7.22
2023-03-16T01:22:40.420Z,6.43
2023-03-16T01:25:44.490Z,8.23
2023-03-16T01:28:47.913Z,6.72
2023-03-16T01:31:51.437Z,8.45
2023-03-16T01:34:55.032Z,5.18
2023-03-16T01:37:59.521Z,6.63
2023-03-16T01:41:04.848Z,7.85
2023-03-16T01:44:16.424Z,7.72
2023-03-16T01:47:20.239Z,8.18
2023-03-16T01:50:23.913Z,6.85
2023-03-16T01:53:27.618Z,9.00
2023-03-16T01:56:40.238Z,9.80
2023-03-16T02:00:11.105Z,7.93
2023-03-16T02:03:28.287Z,7.55
2023-03-16T02:06:37.218Z,6.30
2023-03-16T02:09:46.148Z,7.40
2023-03-16T02:12:50.032Z,7.57
2023-03-16T02:15:54.115Z,8.40
2023-03-16T02:18:58.658Z,8.63
2023-03-16T02:22:08.062Z,11.30
2023-03-16T02:25:14.518Z,7.65
2023-03-16T02:28:55.712Z,8.80
2023-03-16T02:32:03.073Z,11.20
2023-03-16T02:35:07.812Z,8.35
2023-03-16T02:38:11.497Z,7.97
2023-03-16T02:41:22.876Z,8.15
2023-03-16T02:44:37.153Z,12.27
2023-03-16T02:47:44.051Z,8.82
2023-03-16T02:50:49.982Z,9.38
2023-03-16T02:53:53.466Z,8.70
2023-03-16T02:56:57.527Z,7.70
2023-03-16T03:00:06.565Z,9.82
2023-03-16T03:03:10.362Z,11.43
2023-03-16T03:06:14.692Z,10.32
2023-03-16T03:09:19.026Z,10.03
2023-03-16T03:12:24.278Z,7.75
2023-03-16T03:15:27.747Z,10.93
2023-03-16T03:18:41.586Z,8.88
2023-03-16T03:21:45.149Z,8.73
2023-03-16T03:24:48.647Z,9.43
2023-03-16T03:27:54.786Z,9.63
2023-03-16T03:30:59.451Z,10.48
2023-03-16T03:34:06.757Z,9.25
2023-03-16T03:37:12.129Z,8.57
2023-03-16T03:40:19.860Z,10.27
2023-03-16T03:43:27.377Z,7.53
2023-03-16T03:46:31.113Z,7.05
2023-03-16T03:49:34.676Z,10.32
2023-03-16T03:52:38.186Z,10.52
2023-03-16T03:55:41.946Z,7.00
2023-03-16T03:58:45.507Z,10.25
2023-03-16T04:01:56.861Z,8.30
2023-03-16T04:05:04.596Z,7.80
2023-03-16T04:08:08.200Z,8.82
2023-03-16T04:11:12.191Z,7.30
2023-03-16T04:14:16.692Z,8.63
2023-03-16T04:17:20.890Z,8.45
2023-03-16T04:20:26.593Z,7.07
2023-03-16T04:23:30.305Z,8.97
2023-03-16T04:26:34.428Z,7.05
2023-03-16T04:29:40.078Z,7.68
2023-03-16T04:32:44.504Z,9.70
2023-03-16T04:35:53.854Z,8.68
2023-03-16T04:38:59.182Z,8.57
2023-03-16T04:42:02.814Z,8.98
2023-03-16T04:45:08.740Z,9.63
2023-03-16T04:48:16.044Z,10.75
2023-03-16T04:51:21.634Z,7.13
2023-03-16T04:54:36.523Z,9.48
2023-03-16T04:57:40.046Z,11.10
2023-03-16T05:00:43.778Z,8.52
2023-03-16T05:03:59.666Z,15.00
2023-03-16T05:07:04.997Z,9.10
2023-03-16T05:10:14.257Z,9.02
2023-03-16T05:13:17.988Z,11.60
2023-03-16T05:16:24.139Z,9.30
2023-03-16T05:19:27.959Z,10.63
2023-03-16T05:22:31.420Z,9.47
2023-03-16T05:25:47.293Z,12.07
2023-03-16T05:28:52.505Z,8.23
2023-03-16T05:32:00.584Z,9.38
2023-03-16T05:35:07.308Z,11.52
2023-03-16T05:38:11.417Z,8.67
2023-03-16T05:41:18.526Z,10.82
2023-03-16T05:44:30.870Z,13.77
2023-03-16T05:47:53.508Z,11.40
2023-03-16T05:50:57.696Z,11.02
2023-03-16T05:54:05.281Z,10.20
2023-03-16T05:57:14.929Z,10.63
2023-03-16T06:00:21.232Z,10.50
2023-03-16T06:03:33.216Z,10.88
2023-03-16T06:06:37.331Z,12.25
2023-03-16T06:09:48.264Z,8.77
2023-03-16T06:12:53.275Z,7.35
2023-03-16T06:15:57.971Z,9.43
2023-03-16T06:19:01.985Z,8.40
2023-03-16T06:22:08.536Z,7.40
2023-03-16T06:25:14.276Z,11.67
2023-03-16T06:28:19.537Z,7.53
2023-03-16T06:31:23.208Z,8.60
2023-03-16T06:34:27.610Z,14.85
2023-03-16T06:37:32.829Z,8.52
2023-03-16T06:40:41.500Z,8.10
2023-03-16T06:43:45.564Z,12.88
2023-03-16T06:46:49.818Z,9.00
2023-03-16T06:49:55.702Z,12.95
2023-03-16T06:53:04.107Z,9.07
2023-03-16T06:56:10.687Z,10.27
2023-03-16T06:59:18.053Z,9.70
2023-03-16T07:02:24.090Z,8.60
2023-03-16T07:05:28.690Z,10.68
2023-03-16T07:08:33.109Z,10.60
2023-03-16T07:11:37.538Z,10.83
2023-03-16T07:14:42.448Z,6.68
2023-03-16T07:17:49.269Z,8.00
2023-03-16T07:20:54.891Z,12.98
2023-03-16T07:24:01.859Z,7.20
2023-03-16T07:27:12.498Z,8.07
2023-03-16T07:30:17.335Z,6.97
2023-03-16T07:33:23.255Z,11.88
2023-03-16T07:36:27.043Z,8.60
2023-03-16T07:39:35.970Z,9.73
2023-03-16T07:42:47.460Z,8.47
2023-03-16T07:45:53.308Z,12.30
2023-03-16T07:48:57.112Z,10.05
2023-03-16T07:52:00.640Z,8.30
2023-03-16T07:55:12.914Z,9.27
2023-03-16T07:58:16.899Z,13.17
2023-03-16T08:01:20.497Z,10.98
2023-03-16T08:04:25.576Z,7.78
2023-03-16T08:07:30.013Z,7.80
2023-03-16T08:10:42.131Z,10.02
2023-03-16T08:13:54.384Z,10.03
2023-03-16T08:16:58.262Z,9.02
2023-03-16T08:20:12.637Z,8.32
2023-03-16T08:23:16.265Z,10.27
2023-03-16T08:26:24.200Z,9.30
2023-03-16T08:29:34.659Z,6.43
2023-03-16T08:32:41.176Z,7.82
2023-03-16T08:35:47.033Z,5.70
2023-03-16T08:39:06.146Z,6.90
2023-03-16T08:42:16.871Z,7.45
2023-03-16T08:45:24.610Z,8.67
2023-03-16T08:48:29.072Z,7.15
2023-03-16T08:51:33.071Z,8.10
2023-03-16T08:54:36.980Z,6.72
2023-03-16T08:57:40.630Z,8.68
2023-03-16T09:00:46.841Z,12.40
2023-03-16T09:03:51.646Z,8.65
2023-03-16T09:07:07.995Z,9.43
2023-03-16T09:10:25.702Z,8.80
2023-03-16T09:13:30.809Z,9.20
2023-03-16T09:16:35.232Z,8.13
2023-03-16T09:20:01.281Z,10.25
2023-03-16T09:23:03.792Z,9.05
2023-03-16T09:26:07.727Z,8.93
2023-03-16T09:29:12.117Z,7.32
2023-03-16T09:32:16.541Z,6.77
2023-03-16T09:35:21.220Z,8.73
2023-03-16T09:38:29.348Z,11.60
2023-03-16T09:42:04.528Z,7.45
2023-03-16T09:45:22.999Z,7.00
2023-03-16T09:48:29.917Z,8.50
2023-03-16T09:51:38.889Z,8.27
2023-03-16T09:54:53.989Z,9.85
2023-03-16T09:57:59.946Z,8.38
2023-03-16T10:01:38.601Z,8.27
2023-03-16T10:05:07.403Z,7.93
2023-03-16T10:08:22.456Z,7.15
2023-03-16T10:11:40.020Z,7.28
2023-03-16T10:14:56.616Z,6.53
2023-03-16T10:18:20.625Z,6.78
2023-03-16T10:21:25.204Z,6.63
2023-03-16T10:24:50.347Z,6.68
2023-03-16T10:27:54.278Z,5.95
2023-03-16T10:31:00.346Z,6.55
2023-03-16T10:34:06.711Z,7.25
2023-03-16T10:37:14.374Z,3.53
2023-03-16T10:40:20.498Z,7.20
2023-03-16T10:43:25.636Z,7.32
2023-03-16T10:46:36.137Z,5.80
2023-03-16T10:49:48.845Z,8.13
2023-03-16T10:52:57.604Z,8.70
2023-03-16T10:56:12.207Z,6.47
2023-03-16T10:59:37.162Z,7.82
2023-03-16T11:02:41.202Z,5.95
2023-03-16T11:05:46.024Z,5.97
2023-03-16T11:08:49.591Z,5.90
2023-03-16T11:11:54.168Z,7.72
2023-03-16T11:15:25.104Z,5.57
2023-03-16T11:18:39.277Z,8.00
2023-03-16T11:22:02.479Z,5.43
2023-03-16T11:25:09.529Z,5.57
2023-03-16T11:28:19.987Z,8.38
2023-03-16T11:31:52.241Z,6.82
2023-03-16T11:34:55.678Z,7.32
2023-03-16T11:38:04.926Z,7.13
2023-03-16T11:41:15.453Z,4.27
2023-03-16T11:44:44.955Z,8.55
2023-03-16T11:48:13.269Z,8.35
2023-03-16T11:51:36.639Z,5.45
2023-03-16T11:55:09.502Z,4.70
2023-03-16T11:58:16.575Z,4.83
2023-03-16T12:02:06.098Z,5.65
2023-03-16T12:05:22.454Z,6.65
2023-03-16T12:08:35.271Z,5.65
2023-03-16T12:11:51.636Z,7.03
2023-03-16T12:15:17.855Z,7.33
2023-03-16T12:18:44.761Z,6.85
2023-03-16T12:21:52.297Z,6.53
2023-03-16T12:24:55.682Z,4.88
2023-03-16T12:28:03.323Z,5.63
2023-03-16T12:31:31.113Z,5.17
2023-03-16T12:34:43.859Z,3.45
2023-03-16T12:38:08.343Z,5.10
2023-03-16T12:41:34.355Z,6.63
2023-03-16T12:45:01.369Z,2.67
2023-03-16T12:48:27.514Z,4.37
2023-03-16T12:51:42.559Z,4.90
2023-03-16T12:54:54.201Z,3.97
2023-03-16T12:58:05.189Z,8.23
2023-03-16T13:01:12.018Z,6.72
2023-03-16T13:04:19.952Z,6.70
2023-03-16T13:07:31.278Z,4.38
2023-03-16T13:10:35.408Z,5.93
2023-03-16T13:14:16.619Z,5.90
2023-03-16T13:17:20.746Z,2.92
2023-03-16T13:20:31.954Z,5.60
2023-03-16T13:23:58.840Z,5.10
2023-03-16T13:27:19.844Z,9.50
2023-03-16T13:30:32.162Z,6.40
2023-03-16T13:33:38.670Z,6.15
2023-03-16T13:36:45.854Z,4.87
2023-03-16T13:40:21.815Z,6.38
2023-03-16T13:43:31.786Z,4.25
2023-03-16T13:46:35.242Z,4.10
2023-03-16T13:49:47.581Z,5.22
2023-03-16T13:52:58.421Z,9.33
2023-03-16T13:56:04.448Z,5.97
2023-03-16T13:59:11.003Z,4.15
2023-03-16T14:02:23.469Z,6.65
2023-03-16T14:05:36.533Z,8.13
2023-03-16T14:08:42.718Z,4.33
2023-03-16T14:11:48.750Z,4.88
2023-03-16T14:14:56.554Z,6.13
2023-03-16T14:18:21.585Z,6.25
2023-03-16T14:21:30.315Z,6.30
2023-03-16T14:24:38.948Z,5.53
2023-03-16T14:27:44.058Z,7.60
2023-03-16T14:30:53.522Z,5.38
2023-03-16T14:34:02.562Z,5.28
2023-03-16T14:37:13.093Z,3.65
2023-03-16T14:40:31.609Z,3.80
2023-03-16T14:43:38.596Z,5.43
2023-03-16T14:46:43.389Z,5.10
2023-03-16T14:49:47.679Z,7.72
2023-03-16T14:52:52.812Z,12.65
2023-03-16T14:55:58.052Z,6.77
2023-03-16T14:59:01.917Z,5.60
2023-03-16T15:02:15.565Z,5.00
2023-03-16T15:05:36.551Z,8.13
2023-03-16T15:08:44.569Z,4.18
2023-03-16T15:11:48.091Z,4.57
2023-03-16T15:15:09.989Z,6.82
2023-03-16T15:18:13.573Z,4.57
2023-03-16T15:21:29.586Z,10.05
2023-03-16T15:24:33.990Z,8.75
2023-03-16T15:27:37.498Z,9.03
2023-03-16T15:30:41.053Z,12.60
2023-03-16T15:33:45.679Z,6.80
2023-03-16T15:36:49.358Z,8.80
2023-03-16T15:39:52.940Z,13.48
2023-03-16T15:42:56.627Z,6.80
2023-03-16T15:46:00.540Z,9.75
2023-03-16T15:49:04.044Z,10.38
2023-03-16T15:52:18.052Z,5.75
2023-03-16T15:55:35.365Z,6.60
2023-03-16T15:58:42.853Z,7.43
2023-03-16T16:01:47.969Z,6.03
2023-03-16T16:04:51.237Z,8.45
2023-03-16T16:07:55.502Z,8.05
2023-03-16T16:10:58.912Z,8.23
2023-03-16T16:14:02.502Z,5.17
2023-03-16T16:17:15.765Z,6.70
2023-03-16T16:20:32.721Z,6.88
2023-03-16T16:23:37.289Z,7.43
2023-03-16T16:26:52.022Z,7.10
2023-03-16T16:29:57.745Z,5.33
2023-03-16T16:33:02.132Z,7.03
2023-03-16T16:36:11.255Z,7.85
2023-03-16T16:39:14.699Z,6.75
2023-03-16T16:42:19.001Z,13.65
2023-03-16T16:45:27.663Z,7.63
2023-03-16T16:48:37.551Z,9.48
2023-03-16T16:51:41.629Z,10.93
2023-03-16T16:54:45.051Z,16.83
2023-03-16T16:57:50.104Z,15.40
2023-03-16T17:00:58.121Z,12.57
2023-03-16T17:04:02.819Z,9.10
2023-03-16T17:07:11.110Z,10.52
2023-03-16T17:10:17.510Z,13.77
2023-03-16T17:13:26.382Z,10.70
2023-03-16T17:16:35.760Z,10.47
2023-03-16T17:19:39.639Z,10.82
2023-03-16T17:22:45.894Z,11.25
2023-03-16T17:25:49.554Z,7.95
2023-03-16T17:28:58.481Z,8.52
2023-03-16T17:32:07.381Z,10.07
2023-03-16T17:35:16.949Z,10.32
2023-03-16T17:38:23.349Z,9.98
2023-03-16T17:41:28.441Z,9.02
2023-03-16T17:44:37.155Z,8.38
2023-03-16T17:47:41.004Z,6.80
2023-03-16T17:50:48.646Z,9.43
2023-03-16T17:53:53.126Z,12.43
2023-03-16T17:56:57.113Z,10.23
2023-03-16T18:00:02.423Z,9.18
2023-03-16T18:03:14.264Z,10.87
2023-03-16T18:06:24.032Z,11.45
2023-03-16T18:09:28.860Z,12.25
2023-03-16T18:12:32.895Z,13.80
2023-03-16T18:15:36.802Z,17.33
2023-03-16T18:18:42.909Z,17.17
2023-03-16T18:21:46.997Z,24.65
2023-03-16T18:24:51.836Z,22.92
2023-03-16T18:27:55.537Z,27.38
2023-03-16T18:31:00.406Z,27.77
2023-03-16T18:34:06.519Z,25.67
2023-03-16T18:37:18.025Z,30.92
2023-03-16T18:40:22.404Z,21.13
2023-03-16T18:43:27.407Z,18.92
2023-03-16T18:46:36.271Z,16.85
2023-03-16T18:49:39.999Z,18.90
2023-03-16T18:52:44.834Z,20.02
2023-03-16T18:55:49.571Z,14.05
2023-03-16T18:58:54.746Z,15.05
2023-03-16T19:01:59.071Z,17.13
2023-03-16T19:05:05.078Z,16.13
2023-03-16T19:08:12.902Z,14.95
2023-03-16T19:11:18.170Z,16.50
2023-03-16T19:14:24.878Z,19.48
2023-03-16T19:17:28.954Z,18.65
2023-03-16T19:20:34.983Z,17.20
2023-03-16T19:23:39.265Z,17.92
2023-03-16T19:26:43.162Z,13.02
2023-03-16T19:29:46.904Z,11.30
2023-03-16T19:32:52.278Z,12.80
2023-03-16T19:35:57.706Z,19.80
2023-03-16T19:39:01.927Z,24.23
2023-03-16T19:42:06.135Z,26.98
2023-03-16T19:45:25.177Z,22.50
2023-03-16T19:48:33.872Z,17.23
2023-03-16T19:51:37.309Z,26.80
2023-03-16T19:54:42.547Z,23.25
2023-03-16T19:57:48.286Z,21.00
2023-03-16T20:00:53.472Z,37.28
2023-03-16T20:03:57.886Z,31.65
2023-03-16T20:07:01.815Z,39.33
2023-03-16T20:10:07.291Z,42.03
2023-03-16T20:13:11.880Z,29.63
2023-03-16T20:16:36.069Z,27.77
2023-03-16T20:19:39.721Z,25.93
2023-03-16T20:22:43.393Z,23.40
2023-03-16T20:25:48.484Z,15.85
2023-03-16T20:28:52.636Z,14.15
2023-03-16T20:31:56.298Z,12.40
2023-03-16T20:34:59.878Z,13.52
2023-03-16T20:38:03.332Z,10.27
2023-03-16T20:41:13.983Z,12.77
2023-03-16T20:44:23.689Z,11.53
2023-03-16T20:47:27.945Z,12.55
2023-03-16T20:50:31.631Z,8.13
2023-03-16T20:53:35.100Z,10.98
2023-03-16T20:56:38.718Z,9.35
2023-03-16T20:59:43.552Z,11.27
2023-03-16T21:02:47.410Z,10.43
2023-03-16T21:05:52.622Z,13.88
2023-03-16T21:08:58.794Z,14.15
2023-03-16T21:12:02.676Z,16.50
2023-03-16T21:15:26.603Z,12.48
2023-03-16T21:18:30.855Z,13.88
2023-03-16T21:21:34.340Z,15.60
2023-03-16T21:24:37.884Z,12.60
2023-03-16T21:27:41.523Z,15.50
2023-03-16T21:30:47.700Z,16.60
2023-03-16T21:33:53.949Z,15.55
2023-03-16T21:36:57.389Z,17.70
2023-03-16T21:40:01.463Z,16.27
2023-03-16T21:43:05.167Z,19.17
2023-03-16T21:46:18.382Z,20.75
2023-03-16T21:49:21.841Z,21.38
2023-03-16T21:52:30.647Z,15.53
2023-03-16T21:55:34.394Z,16.17
2023-03-16T21:58:37.946Z,16.08
2023-03-16T22:01:54.596Z,13.15
2023-03-16T22:05:02.107Z,15.50
2023-03-16T22:08:15.128Z,13.80
2023-03-16T22:11:22.663Z,15.25
2023-03-16T22:14:27.280Z,16.52
2023-03-16T22:17:33.324Z,15.52
2023-03-16T22:20:37.251Z,17.95
2023-03-16T22:23:41.626Z,17.30
2023-03-16T22:26:46.326Z,15.77
2023-03-16T22:29:51.252Z,9.52
2023-03-16T22:33:01.159Z,6.83
2023-03-16T22:36:11.872Z,6.97
2023-03-16T22:39:15.719Z,7.35
2023-03-16T22:42:39.465Z,8.57
2023-03-16T22:45:43.767Z,13.53
2023-03-16T22:48:47.516Z,12.98
2023-03-16T22:51:54.412Z,12.57
2023-03-16T22:55:01.110Z,14.23
2023-03-16T22:58:25.474Z,13.15
2023-03-16T23:01:38.637Z,8.70
2023-03-16T23:04:42.538Z,9.48
2023-03-16T23:07:46.773Z,10.15
2023-03-16T23:10:52.182Z,9.45
2023-03-16T23:13:55.966Z,7.93
2023-03-16T23:16:59.751Z,7.97
2023-03-16T23:20:06.285Z,8.27
2023-03-16T23:23:09.658Z,10.00
2023-03-16T23:26:28.905Z,9.32
2023-03-16T23:29:32.545Z,12.02
2023-03-16T23:32:35.928Z,10.43
2023-03-16T23:35:41.376Z,15.82
2023-03-16T23:38:45.974Z,12.57
2023-03-16T23:41:50.777Z,11.65
2023-03-16T23:44:54.519Z,14.85
2023-03-16T23:48:01.247Z,9.25
2023-03-16T23:51:05.491Z,11.43
2023-03-16T23:54:23.265Z,9.98
2023-03-16T23:57:26.687Z,11.23
